createdAt,value
2019-02-18T00:01:58.137Z,5.60
2019-02-18T00:04:33.152Z,3.20
2019-02-18T00:07:14.629Z,3.20
2019-02-18T00:09:44.424Z,2.80
2019-02-18T00:12:23.351Z,2.37
2019-02-18T00:15:11.494Z,2.30
2019-02-18T00:17:47.169Z,2.67
2019-02-18T00:20:24.015Z,2.90
2019-02-18T00:23:00.147Z,2.50
2019-02-18T00:25:37.364Z,2.60
2019-02-18T00:28:14.145Z,2.43
2019-02-18T00:30:49.140Z,2.87
2019-02-18T00:33:24.140Z,2.80
2019-02-18T00:35:58.724Z,2.93
2019-02-18T00:38:33.553Z,2.60
2019-02-18T00:41:15.549Z,3.47
2019-02-18T00:43:49.761Z,2.87
2019-02-18T00:46:24.794Z,2.80
2019-02-18T00:49:02.168Z,2.97
2019-02-18T00:51:36.160Z,3.50
2019-02-18T00:54:10.162Z,3.17
2019-02-18T00:56:47.162Z,4.80
2019-02-18T00:59:21.401Z,3.00
2019-02-18T01:01:56.430Z,3.37
2019-02-18T01:04:35.560Z,2.63
2019-02-18T01:07:12.640Z,2.93
2019-02-18T01:09:51.079Z,2.63
2019-02-18T01:12:31.175Z,3.00
2019-02-18T01:15:06.174Z,3.00
2019-02-18T01:17:47.345Z,2.77
2019-02-18T01:20:23.290Z,2.53
2019-02-18T01:22:59.647Z,2.93
2019-02-18T01:25:34.464Z,2.37
2019-02-18T01:28:09.497Z,3.00
2019-02-18T01:30:45.176Z,4.67
2019-02-18T01:33:31.650Z,2.80
2019-02-18T01:36:09.054Z,2.50
2019-02-18T01:38:53.602Z,2.87
2019-02-18T01:41:30.061Z,5.03
2019-02-18T01:44:07.757Z,2.90
2019-02-18T01:46:42.791Z,3.00
2019-02-18T01:49:19.172Z,3.00
2019-02-18T01:51:54.704Z,3.17
2019-02-18T01:54:31.194Z,2.60
2019-02-18T01:57:05.380Z,9.20
2019-02-18T01:59:46.174Z,6.70
2019-02-18T02:02:20.774Z,2.70
2019-02-18T02:04:55.601Z,3.10
2019-02-18T02:07:31.658Z,6.53
2019-02-18T02:10:07.511Z,4.57
2019-02-18T02:12:44.390Z,12.43
2019-02-18T02:15:22.698Z,11.70
2019-02-18T02:17:57.733Z,10.70
2019-02-18T02:20:32.765Z,9.87
2019-02-18T02:23:10.179Z,16.77
2019-02-18T02:25:43.664Z,33.00
2019-02-18T02:28:20.181Z,65.50
2019-02-18T02:30:56.176Z,49.80
2019-02-18T02:33:30.391Z,32.00
2019-02-18T02:36:09.521Z,28.30
2019-02-18T02:38:45.198Z,6.90
2019-02-18T02:41:20.429Z,5.67
2019-02-18T02:43:54.415Z,6.27
2019-02-18T02:46:34.266Z,4.20
2019-02-18T02:49:09.398Z,4.00
2019-02-18T02:51:45.045Z,8.53
2019-02-18T02:54:22.188Z,5.30
2019-02-18T02:57:01.184Z,3.07
2019-02-18T02:59:40.097Z,3.50
2019-02-18T03:02:14.396Z,2.90
2019-02-18T03:04:55.618Z,2.77
2019-02-18T03:07:29.584Z,3.43
2019-02-18T03:10:04.415Z,2.53
2019-02-18T03:12:40.673Z,2.67
2019-02-18T03:15:16.191Z,2.60
2019-02-18T03:17:53.614Z,3.17
2019-02-18T03:20:27.413Z,3.00
2019-02-18T03:23:03.062Z,2.70
2019-02-18T03:25:37.689Z,2.70
2019-02-18T03:28:48.797Z,2.33
2019-02-18T03:31:27.484Z,2.27
2019-02-18T03:37:31.412Z,3.10
2019-02-18T03:40:13.462Z,3.83
2019-02-18T03:42:45.575Z,2.40
2019-02-18T03:48:48.194Z,3.17
2019-02-18T03:51:23.520Z,4.40
2019-02-18T03:53:59.780Z,2.90
2019-02-18T03:56:34.409Z,2.90
2019-02-18T03:59:12.516Z,2.87
2019-02-18T04:01:52.662Z,4.90
2019-02-18T04:04:28.387Z,3.23
2019-02-18T04:07:03.194Z,3.30
2019-02-18T04:09:39.404Z,3.03
2019-02-18T04:12:19.757Z,2.73
2019-02-18T04:14:56.433Z,6.20
2019-02-18T04:17:32.191Z,3.00
2019-02-18T04:20:06.495Z,3.10
2019-02-18T04:22:44.145Z,2.83
2019-02-18T04:25:17.791Z,3.60
2019-02-18T04:27:52.415Z,3.73
2019-02-18T04:30:31.198Z,3.87
2019-02-18T04:33:05.196Z,3.90
2019-02-18T04:35:45.706Z,3.90
2019-02-18T04:38:22.406Z,9.07
2019-02-18T04:40:57.417Z,3.53
2019-02-18T04:43:34.701Z,3.00
2019-02-18T04:46:10.550Z,3.73
2019-02-18T04:48:52.754Z,3.90
2019-02-18T04:51:27.582Z,3.73
2019-02-18T04:54:09.168Z,3.60
2019-02-18T04:56:43.211Z,3.73
2019-02-18T04:59:25.211Z,3.77
2019-02-18T05:02:00.935Z,4.33
2019-02-18T05:04:36.484Z,3.87
2019-02-18T05:07:19.699Z,4.10
2019-02-18T05:10:01.082Z,3.60
2019-02-18T05:12:34.685Z,3.33
2019-02-18T05:15:13.612Z,5.43
2019-02-18T05:17:48.638Z,3.87
2019-02-18T05:20:24.700Z,3.80
2019-02-18T05:22:59.731Z,4.77
2019-02-18T05:25:36.229Z,4.87
2019-02-18T05:28:13.691Z,4.70
2019-02-18T05:30:49.544Z,4.27
2019-02-18T05:33:25.221Z,5.03
2019-02-18T05:36:02.889Z,5.40
2019-02-18T05:38:37.724Z,5.23
2019-02-18T05:41:15.612Z,4.63
2019-02-18T05:43:53.953Z,4.53
2019-02-18T05:46:29.238Z,8.17
2019-02-18T05:49:05.642Z,10.03
2019-02-18T05:51:43.529Z,4.63
2019-02-18T05:54:18.566Z,4.27
2019-02-18T05:56:54.624Z,5.17
2019-02-18T05:59:31.497Z,3.77
2019-02-18T06:02:10.422Z,3.07
2019-02-18T06:04:50.165Z,3.87
2019-02-18T06:07:27.580Z,4.33
2019-02-18T06:10:05.765Z,4.17
2019-02-18T06:12:40.595Z,4.60
2019-02-18T06:15:18.904Z,4.20
2019-02-18T06:17:56.225Z,4.23
2019-02-18T06:20:40.932Z,7.83
2019-02-18T06:23:14.657Z,3.90
2019-02-18T06:25:51.734Z,4.80
2019-02-18T06:28:26.767Z,4.17
2019-02-18T06:31:02.240Z,5.93
2019-02-18T06:33:38.476Z,11.27
2019-02-18T06:36:14.747Z,8.17
2019-02-18T06:38:49.770Z,8.27
2019-02-18T06:41:40.981Z,7.00
2019-02-18T06:44:18.684Z,21.30
2019-02-18T06:50:00.899Z,30.73
2019-02-18T06:56:04.424Z,26.87
2019-02-18T06:59:02.224Z,23.67
2019-02-18T07:01:49.712Z,19.37
2019-02-18T07:04:42.223Z,16.37
2019-02-18T07:11:09.256Z,7.30
2019-02-18T07:13:47.262Z,5.00
2019-02-18T07:16:25.848Z,9.27
2019-02-18T07:19:00.674Z,6.17
2019-02-18T07:21:36.267Z,6.17
2019-02-18T07:24:11.763Z,5.27
2019-02-18T07:26:49.537Z,6.83
2019-02-18T07:29:25.516Z,5.30
2019-02-18T07:32:09.768Z,4.77
2019-02-18T07:34:49.218Z,4.37
2019-02-18T07:37:25.988Z,4.80
2019-02-18T07:43:43.513Z,4.50
2019-02-18T07:49:46.022Z,7.03
2019-02-18T07:52:21.879Z,5.70
2019-02-18T07:54:56.909Z,7.10
2019-02-18T07:57:34.911Z,5.43
2019-02-18T08:00:13.495Z,6.47
2019-02-18T08:02:48.053Z,7.87
2019-02-18T08:05:22.880Z,5.60
2019-02-18T08:07:58.560Z,5.03
2019-02-18T08:10:33.598Z,4.37
2019-02-18T08:13:09.810Z,4.93
2019-02-18T08:15:59.811Z,5.03
2019-02-18T08:18:39.757Z,7.13
2019-02-18T08:21:13.596Z,8.30
2019-02-18T08:23:59.724Z,4.83
2019-02-18T08:26:22.831Z,5.57
2019-02-18T08:29:02.350Z,4.90
2019-02-18T08:31:36.663Z,4.87
2019-02-18T08:34:11.187Z,8.00
2019-02-18T08:36:49.091Z,4.37
2019-02-18T08:39:26.171Z,5.53
2019-02-18T08:42:01.003Z,6.43
2019-02-18T08:44:38.078Z,4.87
2019-02-18T08:47:12.782Z,4.73
2019-02-18T08:49:48.351Z,5.77
2019-02-18T08:52:23.384Z,5.00
2019-02-18T08:54:58.212Z,4.27
2019-02-18T08:57:34.273Z,4.40
2019-02-18T09:00:21.435Z,5.17
2019-02-18T09:02:57.445Z,4.00
2019-02-18T09:05:32.480Z,6.80
2019-02-18T09:08:11.209Z,4.47
2019-02-18T09:10:46.230Z,4.43
2019-02-18T09:13:31.505Z,4.50
2019-02-18T09:16:09.404Z,9.40
2019-02-18T09:18:45.264Z,4.63
2019-02-18T09:21:20.011Z,4.80
2019-02-18T09:24:28.002Z,4.57
2019-02-18T09:27:03.331Z,4.77
2019-02-18T09:33:07.260Z,4.90
2019-02-18T09:35:47.415Z,4.43
2019-02-18T09:38:24.798Z,4.30
2019-02-18T09:40:56.870Z,4.97
2019-02-18T09:43:33.540Z,4.20
2019-02-18T09:46:11.234Z,4.90
2019-02-18T09:48:53.436Z,5.57
2019-02-18T09:54:57.367Z,3.90
2019-02-18T09:57:32.402Z,3.27
2019-02-18T10:00:07.432Z,2.43
2019-02-18T10:02:43.905Z,2.97
2019-02-18T10:05:19.343Z,9.07
2019-02-18T10:07:55.027Z,3.97
2019-02-18T10:10:29.031Z,2.63
2019-02-18T10:16:44.042Z,4.40
2019-02-18T10:19:18.614Z,3.33
2019-02-18T10:21:54.263Z,3.77
2019-02-18T10:24:50.619Z,5.23
2019-02-18T10:27:18.664Z,10.73
2019-02-18T10:29:54.311Z,11.80
2019-02-18T10:32:29.551Z,5.50
2019-02-18T10:35:04.584Z,4.73
2019-02-18T10:37:40.061Z,5.13
2019-02-18T10:40:17.525Z,3.57
2019-02-18T10:42:54.044Z,18.23
2019-02-18T10:48:56.279Z,3.60
2019-02-18T10:51:32.334Z,2.83
2019-02-18T10:54:08.044Z,4.07
2019-02-18T10:56:43.052Z,4.23
2019-02-18T10:59:18.460Z,4.63
2019-02-18T11:01:53.110Z,5.70
2019-02-18T11:04:28.329Z,3.73
2019-02-18T11:10:08.110Z,5.33
2019-02-18T11:16:13.654Z,3.47
2019-02-18T11:18:49.711Z,3.00
2019-02-18T11:25:13.127Z,4.00
2019-02-18T11:27:48.747Z,9.47
2019-02-18T11:30:33.267Z,4.10
2019-02-18T11:36:46.549Z,3.67
2019-02-18T11:43:07.135Z,3.20
2019-02-18T11:45:44.501Z,5.90
2019-02-18T11:48:22.128Z,3.70
2019-02-18T11:50:59.542Z,3.43
2019-02-18T11:53:39.368Z,6.47
2019-02-18T11:56:30.135Z,3.50
2019-02-18T11:59:06.557Z,7.53
2019-02-18T12:01:46.132Z,3.43
2019-02-18T12:04:27.229Z,3.97
2019-02-18T12:06:59.139Z,3.20
2019-02-18T12:09:36.109Z,5.23
2019-02-18T12:12:20.359Z,3.60
2019-02-18T12:15:20.627Z,5.00
2019-02-18T12:17:54.140Z,3.40
2019-02-18T12:20:28.605Z,5.73
2019-02-18T12:23:05.684Z,3.87
2019-02-18T12:25:51.369Z,8.37
2019-02-18T12:28:23.741Z,6.43
2019-02-18T12:31:05.738Z,8.33
2019-02-18T12:33:42.623Z,14.60
2019-02-18T12:36:17.650Z,5.07
2019-02-18T12:38:56.369Z,7.83
2019-02-18T12:41:33.655Z,7.50
2019-02-18T12:44:10.735Z,4.73
2019-02-18T12:46:47.618Z,5.00
2019-02-18T12:52:51.162Z,9.40
2019-02-18T12:55:31.303Z,10.80
2019-02-18T13:01:24.562Z,16.27
2019-02-18T13:08:05.560Z,9.90
2019-02-18T13:10:41.822Z,16.70
2019-02-18T13:13:31.352Z,21.47
2019-02-18T13:16:07.659Z,14.77
2019-02-18T13:18:49.043Z,10.70
2019-02-18T13:21:27.559Z,9.13
2019-02-18T13:24:05.146Z,14.57
2019-02-18T13:26:41.108Z,10.50
2019-02-18T13:29:16.170Z,11.27
2019-02-18T13:31:50.557Z,9.53
2019-02-18T13:34:28.669Z,10.10
2019-02-18T13:37:05.157Z,11.87
2019-02-18T13:39:42.829Z,11.70
2019-02-18T13:42:21.165Z,8.73
2019-02-18T13:48:25.682Z,17.60
2019-02-18T13:51:02.970Z,6.27
2019-02-18T13:53:39.845Z,18.33
2019-02-18T13:56:18.566Z,11.70
2019-02-18T13:58:52.985Z,9.10
2019-02-18T14:01:28.631Z,5.97
2019-02-18T14:04:08.374Z,10.67
2019-02-18T14:06:44.154Z,10.10
2019-02-18T14:09:20.194Z,8.87
2019-02-18T14:12:15.686Z,9.10
2019-02-18T14:18:26.155Z,7.73
2019-02-18T14:21:01.157Z,6.77
2019-02-18T14:23:35.732Z,8.60
2019-02-18T14:26:10.562Z,9.03
2019-02-18T14:28:46.620Z,6.17
2019-02-18T14:31:20.630Z,8.73
2019-02-18T14:33:58.260Z,7.87
2019-02-18T14:36:33.770Z,12.57
2019-02-18T14:39:13.720Z,6.97
2019-02-18T14:41:49.570Z,8.90
2019-02-18T14:44:27.675Z,8.80
2019-02-18T14:47:04.552Z,17.73
2019-02-18T14:49:41.164Z,13.87
2019-02-18T14:55:57.646Z,13.27
2019-02-18T14:58:33.703Z,8.80
2019-02-18T15:04:38.661Z,9.53
2019-02-18T15:07:13.896Z,10.97
2019-02-18T15:10:01.630Z,12.17
2019-02-18T15:12:40.083Z,14.80
2019-02-18T15:15:19.889Z,12.40
2019-02-18T15:18:02.167Z,17.83
2019-02-18T15:20:37.739Z,17.30
2019-02-18T15:23:16.664Z,15.23
2019-02-18T15:25:54.570Z,20.53
2019-02-18T15:32:13.650Z,33.57
2019-02-18T15:38:19.418Z,63.13
2019-02-18T15:40:55.682Z,32.03
2019-02-18T15:43:33.222Z,23.83
2019-02-18T15:49:38.740Z,26.33
2019-02-18T15:52:20.294Z,27.37
2019-02-18T15:55:13.791Z,28.53
2019-02-18T16:00:54.206Z,22.47
2019-02-18T16:07:18.600Z,18.27
2019-02-18T16:09:53.614Z,27.60
2019-02-18T16:16:12.697Z,24.67
2019-02-18T16:22:29.190Z,39.63
2019-02-18T16:25:04.564Z,35.63
2019-02-18T16:27:42.885Z,17.20
2019-02-18T16:34:00.935Z,29.97
2019-02-18T16:36:36.991Z,24.23
2019-02-18T16:39:14.194Z,19.83
2019-02-18T16:41:52.792Z,23.30
2019-02-18T16:44:31.222Z,17.90
2019-02-18T16:47:07.571Z,20.63
2019-02-18T16:50:05.548Z,11.20
2019-02-18T16:52:40.984Z,10.73
2019-02-18T16:55:15.225Z,15.77
2019-02-18T16:57:54.131Z,11.67
2019-02-18T17:00:30.223Z,12.27
2019-02-18T17:03:05.247Z,17.27
2019-02-18T17:05:44.137Z,13.87
2019-02-18T17:08:21.234Z,13.83
2019-02-18T17:10:58.216Z,15.37
2019-02-18T17:13:52.587Z,17.93
2019-02-18T17:16:32.742Z,17.50
2019-02-18T17:19:09.238Z,23.43
2019-02-18T17:21:45.680Z,12.83
2019-02-18T17:28:04.225Z,14.07
2019-02-18T17:34:03.772Z,20.33
2019-02-18T17:36:39.830Z,15.67
2019-02-18T17:43:00.232Z,15.27
2019-02-18T17:45:41.237Z,13.17
2019-02-18T17:48:18.817Z,17.37
2019-02-18T17:54:34.262Z,12.43
2019-02-18T17:57:13.960Z,15.50
2019-02-18T17:59:50.015Z,17.40
2019-02-18T18:02:25.456Z,12.57
2019-02-18T18:05:04.795Z,13.50
2019-02-18T18:07:43.241Z,16.03
2019-02-18T18:10:19.566Z,30.73
2019-02-18T18:12:56.854Z,19.43
2019-02-18T18:15:37.828Z,18.13
2019-02-18T18:18:13.485Z,15.60
2019-02-18T18:20:50.759Z,17.50
2019-02-18T18:23:27.263Z,16.73
2019-02-18T18:26:03.079Z,18.80
2019-02-18T18:28:38.123Z,21.10
2019-02-18T18:31:16.202Z,14.50
2019-02-18T18:33:51.664Z,18.83
2019-02-18T18:36:30.181Z,17.07
2019-02-18T18:39:10.129Z,14.67
2019-02-18T18:41:49.076Z,17.47
2019-02-18T18:44:26.271Z,21.80
2019-02-18T18:47:02.260Z,19.43
2019-02-18T18:49:36.815Z,17.33
2019-02-18T18:52:12.301Z,15.50
2019-02-18T18:54:50.277Z,27.30
2019-02-18T18:57:27.856Z,16.97
2019-02-18T19:00:04.935Z,25.50
2019-02-18T19:02:41.281Z,20.67
2019-02-18T19:05:16.864Z,27.60
2019-02-18T19:07:55.162Z,20.83
2019-02-18T19:10:31.837Z,19.47
2019-02-18T19:13:12.198Z,20.30
2019-02-18T19:15:49.961Z,20.00
2019-02-18T19:18:30.964Z,33.13
2019-02-18T19:21:08.287Z,29.10
2019-02-18T19:23:43.295Z,62.10
2019-02-18T19:26:19.847Z,45.50
2019-02-18T19:28:55.700Z,33.70
2019-02-18T19:31:32.174Z,59.07
2019-02-18T19:34:07.299Z,59.87
2019-02-18T19:36:47.973Z,111.57
2019-02-18T19:39:23.821Z,75.00
2019-02-18T19:41:59.878Z,72.23
2019-02-18T19:44:38.292Z,93.37
2019-02-18T19:47:12.814Z,67.40
2019-02-18T19:49:48.871Z,48.90
2019-02-18T19:52:29.388Z,31.53
2019-02-18T19:55:04.310Z,27.00
2019-02-18T19:57:39.328Z,25.77
2019-02-18T20:00:14.945Z,20.73
2019-02-18T20:02:51.321Z,20.27
2019-02-18T20:05:28.902Z,20.17
2019-02-18T20:08:03.352Z,17.67
2019-02-18T20:10:49.338Z,16.13
2019-02-18T20:13:26.344Z,17.00
2019-02-18T20:16:01.325Z,18.17
2019-02-18T20:18:36.773Z,22.83
2019-02-18T20:24:17.144Z,72.90
2019-02-18T20:30:21.074Z,101.53
2019-02-18T20:36:25.823Z,31.73
2019-02-18T20:42:30.163Z,15.67
2019-02-18T20:45:07.364Z,17.27
2019-02-18T20:47:43.364Z,16.40
2019-02-18T20:50:19.852Z,16.00
2019-02-18T20:52:56.291Z,22.13
2019-02-18T20:59:21.465Z,19.10
2019-02-18T21:02:03.972Z,15.23
2019-02-18T21:08:17.150Z,20.57
2019-02-18T21:14:26.886Z,23.70
2019-02-18T21:20:33.275Z,13.40
2019-02-18T21:23:07.665Z,14.97
2019-02-18T21:25:42.519Z,16.63
2019-02-18T21:28:21.579Z,27.73
2019-02-18T21:30:57.892Z,23.10
2019-02-18T21:33:33.866Z,16.67
2019-02-18T21:39:49.295Z,22.53
2019-02-18T21:42:28.331Z,13.30
2019-02-18T21:45:04.861Z,18.50
2019-02-18T21:47:41.946Z,21.13
2019-02-18T21:50:17.423Z,19.90
2019-02-18T21:52:59.997Z,17.07
2019-02-18T21:55:41.996Z,19.30
2019-02-18T21:58:20.722Z,17.87
2019-02-18T22:00:58.507Z,15.37
2019-02-18T22:03:32.451Z,17.60
2019-02-18T22:06:09.911Z,15.80
2019-02-18T22:08:44.443Z,13.57
2019-02-18T22:11:21.000Z,19.07
2019-02-18T22:13:56.038Z,12.47
2019-02-18T22:16:31.888Z,15.67
2019-02-18T22:19:06.460Z,15.23
2019-02-18T22:21:42.161Z,16.50
2019-02-18T22:24:18.015Z,15.57
2019-02-18T22:26:54.069Z,15.63
2019-02-18T22:29:29.717Z,13.47
2019-02-18T22:32:10.076Z,14.63
2019-02-18T22:34:44.905Z,15.13
2019-02-18T22:37:22.398Z,16.83
2019-02-18T22:39:58.561Z,16.97
2019-02-18T22:42:39.559Z,14.13
2019-02-18T22:45:15.076Z,19.77
2019-02-18T22:47:48.707Z,17.07
2019-02-18T22:50:25.345Z,18.47
2019-02-18T22:53:01.405Z,22.37
2019-02-18T22:55:36.722Z,18.13
2019-02-18T22:58:11.265Z,20.17
2019-02-18T23:01:01.722Z,14.47
2019-02-18T23:03:38.330Z,21.77
2019-02-18T23:06:16.233Z,17.30
2019-02-18T23:08:50.719Z,14.87
2019-02-18T23:11:27.323Z,16.77
2019-02-18T23:14:06.042Z,20.87
2019-02-18T23:16:42.745Z,16.33
2019-02-18T23:19:19.182Z,13.47
2019-02-18T23:25:22.736Z,13.90
2019-02-18T23:37:51.729Z,18.00
2019-02-18T23:40:25.738Z,19.17
2019-02-18T23:46:42.289Z,19.63
2019-02-18T23:52:32.739Z,17.97
2019-02-18T23:58:39.738Z,18.50
